createdAt,value
2023-04-01T00:00:26.311Z,6.43
2023-04-01T00:02:54.814Z,6.43
2023-04-01T00:05:21.618Z,6.41
2023-04-01T00:07:50.100Z,6.35
2023-04-01T00:10:16.746Z,6.36
2023-04-01T00:12:46.716Z,6.36
2023-04-01T00:15:13.558Z,6.36
2023-04-01T00:17:40.189Z,6.35
2023-04-01T00:20:08.966Z,6.37
2023-04-01T00:22:41.982Z,6.40
2023-04-01T00:25:08.831Z,6.37
2023-04-01T00:27:35.373Z,6.38
2023-04-01T00:30:02.402Z,6.41
2023-04-01T00:32:28.925Z,6.43
2023-04-01T00:34:55.741Z,6.42
2023-04-01T00:37:24.546Z,6.43
2023-04-01T00:39:51.112Z,6.47
2023-04-01T00:42:17.774Z,6.48
2023-04-01T00:44:51.294Z,6.46
2023-04-01T00:47:18.341Z,6.47
2023-04-01T00:49:52.130Z,6.50
2023-04-01T00:52:23.890Z,6.52
2023-04-01T00:54:56.532Z,6.52
2023-04-01T00:57:34.410Z,6.55
2023-04-01T01:00:01.359Z,6.58
2023-04-01T01:10:38.629Z,6.47
2023-04-01T01:13:23.314Z,6.46
2023-04-01T01:16:11.016Z,6.45
2023-04-01T01:18:46.323Z,6.40
2023-04-01T01:21:39.523Z,6.35
2023-04-01T01:24:57.106Z,6.28
2023-04-01T01:27:29.902Z,6.25
2023-04-01T01:30:18.302Z,6.22
2023-04-01T01:33:03.059Z,6.24
2023-04-01T01:35:36.989Z,6.21
2023-04-01T01:38:09.424Z,6.25
2023-04-01T01:40:42.866Z,6.34
2023-04-01T01:43:12.773Z,6.48
2023-04-01T01:45:46.642Z,6.68
2023-04-01T01:48:13.471Z,6.83
2023-04-01T01:50:43.516Z,6.98
2023-04-01T01:53:13.448Z,7.09
2023-04-01T01:55:46.531Z,7.21
2023-04-01T01:58:32.829Z,7.28
2023-04-01T02:01:02.376Z,7.39
2023-04-01T02:03:32.910Z,7.46
2023-04-01T02:06:03.463Z,7.47
2023-04-01T02:08:37.600Z,7.50
2023-04-01T02:11:10.196Z,7.51
2023-04-01T02:13:42.937Z,7.51
2023-04-01T02:16:29.361Z,7.53
2023-04-01T02:18:58.751Z,7.55
2023-04-01T02:21:28.993Z,7.52
2023-04-01T02:23:58.582Z,7.56
2023-04-01T02:26:27.521Z,7.57
2023-04-01T02:28:56.061Z,7.53
2023-04-01T02:31:26.259Z,7.53
2023-04-01T02:33:54.370Z,7.56
2023-04-01T02:36:21.593Z,7.57
2023-04-01T02:38:58.154Z,7.60
2023-04-01T02:41:27.189Z,7.65
2023-04-01T02:43:53.698Z,7.68
2023-04-01T02:46:20.586Z,7.66
2023-04-01T02:48:47.124Z,7.68
2023-04-01T02:51:13.828Z,7.70
2023-04-01T02:53:40.580Z,7.69
2023-04-01T02:56:07.122Z,7.73
2023-04-01T02:58:33.619Z,7.75
2023-04-01T03:01:02.561Z,7.77
2023-04-01T03:03:32.592Z,7.77
2023-04-01T03:06:01.427Z,7.78
2023-04-01T03:08:28.060Z,7.78
2023-04-01T03:10:54.537Z,7.77
2023-04-01T03:13:21.046Z,7.74
2023-04-01T03:15:56.148Z,7.71
2023-04-01T03:18:22.885Z,7.62
2023-04-01T03:20:49.376Z,7.48
2023-04-01T03:23:18.505Z,7.33
2023-04-01T03:25:46.700Z,7.13
2023-04-01T03:28:14.173Z,6.95
2023-04-01T03:30:40.975Z,6.80
2023-04-01T03:33:07.819Z,6.70
2023-04-01T03:35:36.966Z,6.60
2023-04-01T03:38:08.080Z,6.52
2023-04-01T03:40:38.219Z,6.45
2023-04-01T03:43:11.502Z,6.41
2023-04-01T03:45:48.633Z,6.35
2023-04-01T03:48:19.801Z,6.32
2023-04-01T03:50:46.447Z,6.29
2023-04-01T03:53:13.285Z,6.28
2023-04-01T03:55:40.898Z,6.26
2023-04-01T03:58:09.827Z,6.25
2023-04-01T04:00:37.018Z,6.25
2023-04-01T04:03:05.680Z,6.23
2023-04-01T04:05:32.543Z,6.23
2023-04-01T04:07:59.359Z,6.21
2023-04-01T04:10:32.373Z,6.23
2023-04-01T04:12:58.853Z,6.23
2023-04-01T04:15:25.352Z,6.26
2023-04-01T04:17:52.068Z,6.36
2023-04-01T04:20:18.644Z,6.42
2023-04-01T04:22:47.042Z,6.45
2023-04-01T04:27:58.499Z,6.63
2023-04-01T04:30:31.574Z,6.58
2023-04-01T04:32:58.063Z,6.59
2023-04-01T04:35:24.666Z,6.70
2023-04-01T04:37:51.342Z,6.69
2023-04-01T04:40:17.946Z,6.68
2023-04-01T04:42:44.611Z,6.67
2023-04-01T04:45:11.982Z,6.66
2023-04-01T04:47:38.550Z,6.67
2023-04-01T04:50:05.620Z,6.69
2023-04-01T04:52:33.852Z,6.68
2023-04-01T04:55:01.806Z,6.69
2023-04-01T04:57:28.338Z,6.69
2023-04-01T04:59:55.137Z,6.70
2023-04-01T05:02:24.069Z,6.68
2023-04-01T05:04:50.604Z,6.71
2023-04-01T05:07:19.273Z,6.76
2023-04-01T05:09:46.790Z,6.82
2023-04-01T05:12:14.028Z,6.83
2023-04-01T05:14:40.851Z,6.82
2023-04-01T05:17:11.628Z,6.82
2023-04-01T05:19:39.001Z,6.87
2023-04-01T05:22:06.541Z,6.88
2023-04-01T05:24:33.672Z,6.88
2023-04-01T05:27:00.529Z,6.89
2023-04-01T05:29:29.442Z,6.87
2023-04-01T05:31:55.903Z,6.86
2023-04-01T05:34:22.386Z,6.89
2023-04-01T05:36:48.860Z,6.88
2023-04-01T05:39:15.385Z,6.91
2023-04-01T05:41:41.867Z,6.94
2023-04-01T05:44:08.473Z,6.95
2023-04-01T05:46:35.089Z,6.98
2023-04-01T05:49:01.591Z,7.02
2023-04-01T05:51:29.802Z,7.00
2023-04-01T05:53:56.339Z,6.99
2023-04-01T05:56:23.079Z,6.99
2023-04-01T05:58:54.774Z,7.01
2023-04-01T06:01:21.794Z,7.01
2023-04-01T06:03:48.597Z,7.02
2023-04-01T06:06:26.307Z,7.06
2023-04-01T06:08:54.473Z,7.10
2023-04-01T06:11:56.820Z,7.13
2023-04-01T06:14:50.631Z,7.17
2023-04-01T06:17:37.770Z,7.16
2023-04-01T06:20:20.900Z,7.14
2023-04-01T06:23:10.469Z,7.16
2023-04-01T06:26:01.212Z,7.19
2023-04-01T06:29:24.999Z,7.23
2023-04-01T06:32:15.141Z,7.28
2023-04-01T06:34:54.163Z,7.29
2023-04-01T06:37:42.532Z,7.24
2023-04-01T06:40:47.297Z,7.21
2023-04-01T06:43:38.383Z,7.18
2023-04-01T06:46:48.445Z,7.17
2023-04-01T06:49:36.744Z,7.15
2023-04-01T06:52:33.222Z,7.16
2023-04-01T06:55:05.775Z,7.16
2023-04-01T06:57:41.118Z,7.17
2023-04-01T07:00:40.885Z,7.17
2023-04-01T07:03:36.267Z,7.16
2023-04-01T07:06:10.358Z,7.20
2023-04-01T07:08:42.242Z,7.18
2023-04-01T07:11:12.601Z,7.21
2023-04-01T07:14:05.488Z,7.23
2023-04-01T07:16:58.005Z,7.24
2023-04-01T07:19:39.290Z,7.24
2023-04-01T07:22:15.626Z,7.29
2023-04-01T07:24:44.388Z,7.33
2023-04-01T07:27:13.219Z,7.34
2023-04-01T07:29:40.157Z,7.37
2023-04-01T07:32:39.392Z,7.40
2023-04-01T07:35:31.166Z,7.44
2023-04-01T07:38:12.568Z,7.46
2023-04-01T07:40:43.980Z,7.52
2023-04-01T07:43:56.849Z,7.59
2023-04-01T07:46:48.596Z,7.65
2023-04-01T07:49:39.661Z,7.66
2023-04-01T07:52:31.186Z,7.68
2023-04-01T07:55:12.355Z,7.73
2023-04-01T07:57:53.759Z,7.75
2023-04-01T08:00:40.737Z,7.81
2023-04-01T08:03:27.611Z,7.81
2023-04-01T08:06:06.839Z,7.83
2023-04-01T08:08:57.989Z,7.83
2023-04-01T08:11:25.139Z,7.82
2023-04-01T08:14:21.708Z,7.82
2023-04-01T08:17:03.556Z,7.77
2023-04-01T08:19:56.976Z,7.79
2023-04-01T08:22:31.649Z,7.79
2023-04-01T08:25:03.652Z,7.79
2023-04-01T08:27:57.245Z,7.78
2023-04-01T08:30:34.526Z,7.80
2023-04-01T08:33:12.527Z,7.86
2023-04-01T08:35:46.268Z,7.90
2023-04-01T08:38:21.404Z,7.95
2023-04-01T08:40:58.800Z,7.98
2023-04-01T08:44:03.336Z,8.03
2023-04-01T08:47:06.868Z,8.09
2023-04-01T08:49:57.853Z,8.14
2023-04-01T08:53:04.710Z,8.17
2023-04-01T08:56:07.569Z,8.21
2023-04-01T08:59:11.773Z,8.24
2023-04-01T09:02:02.145Z,8.22
2023-04-01T09:04:57.998Z,8.22
2023-04-01T09:07:42.242Z,8.28
2023-04-01T09:10:27.383Z,8.32
2023-04-01T09:13:22.238Z,8.34
2023-04-01T09:15:58.663Z,8.39
2023-04-01T09:18:47.758Z,8.43
2023-04-01T09:21:37.384Z,8.46
2023-04-01T09:24:43.693Z,8.52
2023-04-01T09:27:22.176Z,8.58
2023-04-01T09:30:21.333Z,8.57
2023-04-01T09:33:06.434Z,8.62
2023-04-01T09:35:49.357Z,8.67
2023-04-01T09:38:18.601Z,8.73
2023-04-01T09:41:05.316Z,8.74
2023-04-01T09:43:53.432Z,8.73
2023-04-01T09:46:28.242Z,8.72
2023-04-01T09:49:14.199Z,8.69
2023-04-01T09:52:17.457Z,8.69
2023-04-01T09:54:53.416Z,8.69
2023-04-01T09:57:42.034Z,8.69
2023-04-01T10:00:39.665Z,8.65
2023-04-01T10:03:33.723Z,8.62
2023-04-01T10:06:22.015Z,8.51
2023-04-01T10:09:22.471Z,8.48
2023-04-01T10:12:22.296Z,8.47
2023-04-01T10:15:22.955Z,8.48
2023-04-01T10:18:21.579Z,8.50
2023-04-01T10:21:18.957Z,8.51
2023-04-01T10:24:23.373Z,8.53
2023-04-01T10:27:39.421Z,8.57
2023-04-01T10:30:47.627Z,8.61
2023-04-01T10:33:39.179Z,8.68
2023-04-01T10:36:43.272Z,8.77
2023-04-01T10:39:21.185Z,8.87
2023-04-01T10:42:17.350Z,8.91
2023-04-01T10:45:04.448Z,8.92
2023-04-01T10:47:45.946Z,8.91
2023-04-01T10:50:38.331Z,8.96
2023-04-01T10:53:14.925Z,9.01
2023-04-01T10:56:16.708Z,9.02
2023-04-01T10:59:20.243Z,9.05
2023-04-01T11:02:11.840Z,9.08
2023-04-01T11:04:58.478Z,8.99
2023-04-01T11:07:50.484Z,8.86
2023-04-01T11:10:25.731Z,8.71
2023-04-01T11:13:07.540Z,8.55
2023-04-01T11:15:42.904Z,8.38
2023-04-01T11:18:46.879Z,8.28
2023-04-01T11:21:50.696Z,8.21
2023-04-01T11:24:39.059Z,8.20
2023-04-01T11:27:43.751Z,8.20
2023-04-01T11:30:22.706Z,8.24
2023-04-01T11:33:11.540Z,8.29
2023-04-01T11:36:09.235Z,8.33
2023-04-01T11:38:52.180Z,8.38
2023-04-01T11:41:23.979Z,8.41
2023-04-01T11:44:11.310Z,8.46
2023-04-01T11:47:17.355Z,8.51
2023-04-01T11:50:28.495Z,8.55
2023-04-01T11:53:14.891Z,8.60
2023-04-01T11:55:42.016Z,8.67
2023-04-01T11:58:39.195Z,8.74
2023-04-01T12:01:17.845Z,8.89
2023-04-01T12:04:12.202Z,9.00
2023-04-01T12:07:00.561Z,9.14
2023-04-01T12:09:49.213Z,9.30
2023-04-01T12:12:34.498Z,9.43
2023-04-01T12:15:16.094Z,9.61
2023-04-01T12:17:57.535Z,9.78
2023-04-01T12:20:45.635Z,9.97
2023-04-01T12:23:27.901Z,10.05
2023-04-01T12:26:16.513Z,10.14
2023-04-01T12:29:00.362Z,10.33
2023-04-01T12:31:50.398Z,10.39
2023-04-01T12:34:44.904Z,10.50
2023-04-01T12:37:27.895Z,10.43
2023-04-01T12:40:20.840Z,10.38
2023-04-01T12:42:58.389Z,10.38
2023-04-01T12:45:33.084Z,10.42
2023-04-01T12:48:22.710Z,10.42
2023-04-01T12:50:54.930Z,10.40
2023-04-01T12:53:40.875Z,10.35
2023-04-01T12:56:31.453Z,10.42
2023-04-01T12:59:13.815Z,10.46
2023-04-01T13:01:46.751Z,10.46
2023-04-01T13:04:46.103Z,10.47
2023-04-01T13:07:31.463Z,10.50
2023-04-01T13:10:21.439Z,10.53
2023-04-01T13:13:16.479Z,10.52
2023-04-01T13:15:47.542Z,10.44
2023-04-01T13:18:29.184Z,10.37
2023-04-01T13:21:28.081Z,10.29
2023-04-01T13:24:10.223Z,10.18
2023-04-01T13:26:59.697Z,10.02
2023-04-01T13:29:44.864Z,9.81
2023-04-01T13:35:35.001Z,9.36
2023-04-01T13:38:18.596Z,9.25
2023-04-01T13:41:14.029Z,9.19
2023-04-01T13:43:52.361Z,9.23
2023-04-01T13:46:36.144Z,9.27
2023-04-01T13:49:23.924Z,9.29
2023-04-01T13:52:05.984Z,9.31
2023-04-01T13:55:01.252Z,9.35
2023-04-01T13:58:03.841Z,9.33
2023-04-01T14:00:56.874Z,9.24
2023-04-01T14:03:42.380Z,9.23
2023-04-01T14:06:52.611Z,9.21
2023-04-01T14:09:31.450Z,9.18
2023-04-01T14:12:26.497Z,9.22
2023-04-01T14:15:22.621Z,9.24
2023-04-01T14:18:04.015Z,9.35
2023-04-01T14:20:41.895Z,9.35
2023-04-01T14:23:38.472Z,9.43
2023-04-01T14:26:23.969Z,9.48
2023-04-01T14:29:09.336Z,9.57
2023-04-01T14:31:58.330Z,9.70
2023-04-01T14:35:01.446Z,9.87
2023-04-01T14:37:49.660Z,10.02
2023-04-01T14:40:58.456Z,10.17
2023-04-01T14:44:06.996Z,10.30
2023-04-01T14:46:56.705Z,10.39
2023-04-01T14:49:32.050Z,10.48
2023-04-01T14:52:27.469Z,10.45
2023-04-01T14:54:54.715Z,10.51
2023-04-01T14:57:39.211Z,10.66
2023-04-01T15:00:15.791Z,10.80
2023-04-01T15:02:50.470Z,10.73
2023-04-01T15:05:38.772Z,10.68
2023-04-01T15:08:14.108Z,10.64
2023-04-01T15:11:04.640Z,10.64
2023-04-01T15:13:33.466Z,10.66
2023-04-01T15:16:12.342Z,10.75
2023-04-01T15:18:57.612Z,10.93
2023-04-01T15:21:35.969Z,11.01
2023-04-01T15:24:19.282Z,11.02
2023-04-01T15:27:16.893Z,11.04
2023-04-01T15:30:05.890Z,11.06
2023-04-01T15:32:44.398Z,11.01
2023-04-01T15:35:31.625Z,10.90
2023-04-01T15:38:08.482Z,10.89
2023-04-01T15:40:39.755Z,10.82
2023-04-01T15:43:15.884Z,10.76
2023-04-01T15:45:53.768Z,10.73
2023-04-01T15:48:27.238Z,10.66
2023-04-01T15:51:22.387Z,10.59
2023-04-01T15:54:18.238Z,10.55
2023-04-01T15:56:51.608Z,10.53
2023-04-01T15:59:30.463Z,10.47
2023-04-01T16:02:06.885Z,10.43
2023-04-01T16:05:08.605Z,10.37
2023-04-01T16:08:04.110Z,10.33
2023-04-01T16:10:56.991Z,10.07
2023-04-01T16:13:41.455Z,9.88
2023-04-01T16:16:18.243Z,9.83
2023-04-01T16:18:56.310Z,9.79
2023-04-01T16:21:47.390Z,9.75
2023-04-01T16:24:32.557Z,9.76
2023-04-01T16:27:09.006Z,9.80
2023-04-01T16:29:52.779Z,9.88
2023-04-01T16:32:47.006Z,9.98
2023-04-01T16:35:46.415Z,10.02
2023-04-01T16:38:31.204Z,10.03
2023-04-01T16:41:17.743Z,10.00
2023-04-01T16:43:54.715Z,9.95
2023-04-01T16:46:35.405Z,9.92
2023-04-01T16:49:28.862Z,9.88
2023-04-01T16:52:01.942Z,9.88
2023-04-01T16:54:36.719Z,9.83
2023-04-01T16:57:19.220Z,9.66
2023-04-01T16:59:48.976Z,9.50
2023-04-01T17:02:18.616Z,9.41
2023-04-01T17:04:51.315Z,9.35
2023-04-01T17:07:32.776Z,9.32
2023-04-01T17:10:27.603Z,9.29
2023-04-01T17:13:09.425Z,9.28
2023-04-01T17:15:46.989Z,9.28
2023-04-01T17:18:25.717Z,9.29
2023-04-01T17:21:08.951Z,9.28
2023-04-01T17:23:45.069Z,9.23
2023-04-01T17:26:38.285Z,9.22
2023-04-01T17:29:34.368Z,9.16
2023-04-01T17:32:10.688Z,9.09
2023-04-01T17:35:18.920Z,9.06
2023-04-01T17:37:53.093Z,8.99
2023-04-01T17:40:38.335Z,8.93
2023-04-01T17:43:24.277Z,8.86
2023-04-01T17:45:56.836Z,8.80
2023-04-01T17:49:04.337Z,8.71
2023-04-01T17:51:59.595Z,8.65
2023-04-01T17:54:53.041Z,8.64
2023-04-01T17:58:05.956Z,8.60
2023-04-01T18:00:54.577Z,8.56
2023-04-01T18:03:33.397Z,8.53
2023-04-01T18:06:24.596Z,8.47
2023-04-01T18:09:00.359Z,8.44
2023-04-01T18:11:38.378Z,8.42
2023-04-01T18:14:31.191Z,8.42
2023-04-01T18:17:18.957Z,8.41
2023-04-01T18:20:02.478Z,8.39
2023-04-01T18:22:46.881Z,8.38
2023-04-01T18:25:23.599Z,8.36
2023-04-01T18:28:11.548Z,8.34
2023-04-01T18:30:44.137Z,8.29
2023-04-01T18:33:30.640Z,8.25
2023-04-01T18:36:49.036Z,8.21
2023-04-01T18:39:27.248Z,8.18
2023-04-01T18:42:17.464Z,8.15
2023-04-01T18:45:31.070Z,8.15
2023-04-01T18:48:36.291Z,8.14
2023-04-01T18:51:15.039Z,8.14
2023-04-01T18:53:54.698Z,8.13
2023-04-01T18:56:35.682Z,8.14
2023-04-01T18:59:11.680Z,8.12
2023-04-01T19:01:51.562Z,8.08
2023-04-01T19:04:33.038Z,8.05
2023-04-01T19:07:40.523Z,8.03
2023-04-01T19:10:25.008Z,8.00
2023-04-01T19:13:08.288Z,7.99
2023-04-01T19:15:40.864Z,7.97
2023-04-01T19:18:46.305Z,7.95
2023-04-01T19:21:39.628Z,7.94
2023-04-01T19:24:40.098Z,7.92
2023-04-01T19:27:21.317Z,7.88
2023-04-01T19:29:57.146Z,7.85
2023-04-01T19:32:34.645Z,7.81
2023-04-01T19:35:51.149Z,7.72
2023-04-01T19:38:36.032Z,7.66
2023-04-01T19:41:16.467Z,7.59
2023-04-01T19:44:05.871Z,7.52
2023-04-01T19:46:39.560Z,7.46
2023-04-01T19:49:30.864Z,7.42
2023-04-01T19:52:21.216Z,7.36
2023-04-01T19:55:16.134Z,7.32
2023-04-01T19:58:06.562Z,7.29
2023-04-01T20:00:41.962Z,7.23
2023-04-01T20:03:27.829Z,7.22
2023-04-01T20:06:16.069Z,7.18
2023-04-01T20:08:54.713Z,7.16
2023-04-01T20:11:49.902Z,7.11
2023-04-01T20:14:40.248Z,7.06
2023-04-01T20:17:28.313Z,7.04
2023-04-01T20:20:04.784Z,7.02
2023-04-01T20:22:46.835Z,6.94
2023-04-01T20:25:22.314Z,6.92
2023-04-01T20:27:55.466Z,6.93
2023-04-01T20:30:44.480Z,6.87
2023-04-01T20:34:07.816Z,6.88
2023-04-01T20:36:59.668Z,6.82
2023-04-01T20:39:41.701Z,6.79
2023-04-01T20:42:23.932Z,6.79
2023-04-01T20:45:08.092Z,6.78
2023-04-01T20:48:03.905Z,6.76
2023-04-01T20:50:35.431Z,6.75
2023-04-01T20:53:12.806Z,6.72
2023-04-01T20:55:57.745Z,6.69
2023-04-01T20:58:45.188Z,6.67
2023-04-01T21:02:10.055Z,6.64
2023-04-01T21:05:26.202Z,6.60
2023-04-01T21:08:20.822Z,6.56
2023-04-01T21:11:29.037Z,6.54
2023-04-01T21:14:27.909Z,6.53
2023-04-01T21:17:00.343Z,6.53
2023-04-01T21:19:51.597Z,6.51
2023-04-01T21:22:23.735Z,6.49
2023-04-01T21:25:10.668Z,6.41
2023-04-01T21:28:05.208Z,6.40
2023-04-01T21:30:53.021Z,6.40
2023-04-01T21:34:13.289Z,6.37
2023-04-01T21:36:52.183Z,6.32
2023-04-01T21:39:22.117Z,6.27
2023-04-01T21:42:08.374Z,6.25
2023-04-01T21:44:43.212Z,6.22
2023-04-01T21:47:21.095Z,6.18
2023-04-01T21:50:08.417Z,6.12
2023-04-01T21:52:57.811Z,6.09
2023-04-01T21:55:59.727Z,6.05
2023-04-01T21:58:44.904Z,6.04
2023-04-01T22:01:35.874Z,6.02
2023-04-01T22:04:41.528Z,5.99
2023-04-01T22:07:21.810Z,5.97
2023-04-01T22:10:02.948Z,5.98
2023-04-01T22:12:44.708Z,5.94
2023-04-01T22:15:33.189Z,5.90
2023-04-01T22:18:17.139Z,5.90
2023-04-01T22:21:06.372Z,5.91
2023-04-01T22:23:50.566Z,5.93
2023-04-01T22:26:49.637Z,5.95
2023-04-01T22:29:25.708Z,5.93
2023-04-01T22:32:00.944Z,5.92
2023-04-01T22:34:46.549Z,5.94
2023-04-01T22:37:19.316Z,5.94
2023-04-01T22:39:54.835Z,5.95
2023-04-01T22:42:47.550Z,5.97
2023-04-01T22:45:15.775Z,5.97
2023-04-01T22:48:02.370Z,5.97
2023-04-01T22:50:37.311Z,5.93
2023-04-01T22:53:31.345Z,5.93
2023-04-01T22:56:06.183Z,5.93
2023-04-01T22:58:39.766Z,5.97
2023-04-01T23:01:17.634Z,5.97
2023-04-01T23:03:47.455Z,5.98
2023-04-01T23:06:20.414Z,5.99
2023-04-01T23:08:47.242Z,6.00
2023-04-01T23:11:44.831Z,5.99
2023-04-01T23:14:38.069Z,5.98
2023-04-01T23:17:25.086Z,6.01
2023-04-01T23:19:57.390Z,5.99
2023-04-01T23:22:46.790Z,5.95
2023-04-01T23:25:25.747Z,5.93
2023-04-01T23:28:08.153Z,5.93
2023-04-01T23:30:40.895Z,5.93
2023-04-01T23:33:21.063Z,5.93
2023-04-01T23:36:06.390Z,5.94
2023-04-01T23:38:42.220Z,5.95
2023-04-01T23:41:27.077Z,5.95
2023-04-01T23:44:03.181Z,5.96
2023-04-01T23:46:31.506Z,5.92
2023-04-01T23:48:58.640Z,5.93
2023-04-01T23:51:32.174Z,5.91
2023-04-01T23:54:04.377Z,5.91
2023-04-01T23:56:48.382Z,5.89
2023-04-01T23:59:23.286Z,5.85
